In Rescue
 
Open Full Screen Window  High Contrast Mode
Wind Gusting 00 knots
05
July 25, 2021 8:55 AM EDT
Weather Information
Wind Direction
  240 °
Wind Speed
  05 kt (6 mph)
Wind Gust
  00 kt (0 mph)
Altimeter
29.86 in
Visibility
10 SM
Temperature
20° C
68° F
Dewpoint
17° C
63° F
Humidity
83%
Sky Condition
Clear
VFR

METAR KMGN 251255Z AUTO 24005KT 10SM CLR 20/17 A2986 RMK AO2 T02070173

FAA Disclaimer: The data displayed is for advisory purposes only and is not to be used for flight planning or operations.